sensor_id;sensor_type;location;lat;lon;timestamp;P1;durP1;ratioP1;P2;durP2;ratioP2
47575;SDS011;33304;52.456;13.328;2022-08-21T00:00:10;9.10;;;4.90;;
47575;SDS011;33304;52.456;13.328;2022-08-21T00:02:44;6.73;;;5.27;;
47575;SDS011;33304;52.456;13.328;2022-08-21T00:05:13;5.43;;;4.60;;
47575;SDS011;33304;52.456;13.328;2022-08-21T00:07:40;5.27;;;4.77;;
47575;SDS011;33304;52.456;13.328;2022-08-21T00:10:09;6.37;;;5.57;;
47575;SDS011;33304;52.456;13.328;2022-08-21T00:12:36;5.13;;;4.70;;
47575;SDS011;33304;52.456;13.328;2022-08-21T00:15:04;6.47;;;5.37;;
47575;SDS011;33304;52.456;13.328;2022-08-21T00:17:33;5.67;;;5.03;;
47575;SDS011;33304;52.456;13.328;2022-08-21T00:20:00;5.33;;;4.83;;
47575;SDS011;33304;52.456;13.328;2022-08-21T00:22:29;8.63;;;5.23;;
47575;SDS011;33304;52.456;13.328;2022-08-21T00:24:56;7.07;;;5.53;;
47575;SDS011;33304;52.456;13.328;2022-08-21T00:27:25;6.50;;;4.90;;
47575;SDS011;33304;52.456;13.328;2022-08-21T00:29:52;6.13;;;5.10;;
47575;SDS011;33304;52.456;13.328;2022-08-21T00:32:21;8.53;;;5.37;;
47575;SDS011;33304;52.456;13.328;2022-08-21T00:34:50;6.17;;;5.23;;
47575;SDS011;33304;52.456;13.328;2022-08-21T00:37:18;6.40;;;5.53;;
47575;SDS011;33304;52.456;13.328;2022-08-21T00:39:45;6.43;;;5.33;;
47575;SDS011;33304;52.456;13.328;2022-08-21T00:42:14;6.07;;;5.30;;
47575;SDS011;33304;52.456;13.328;2022-08-21T00:44:43;8.33;;;5.30;;
47575;SDS011;33304;52.456;13.328;2022-08-21T00:47:11;6.23;;;4.97;;
47575;SDS011;33304;52.456;13.328;2022-08-21T00:49:39;5.87;;;5.23;;
47575;SDS011;33304;52.456;13.328;2022-08-21T00:52:09;7.07;;;5.70;;
47575;SDS011;33304;52.456;13.328;2022-08-21T00:54:39;7.27;;;5.20;;
47575;SDS011;33304;52.456;13.328;2022-08-21T00:57:09;6.00;;;5.20;;
47575;SDS011;33304;52.456;13.328;2022-08-21T00:59:39;5.90;;;5.23;;
47575;SDS011;33304;52.456;13.328;2022-08-21T01:02:10;6.37;;;5.43;;
47575;SDS011;33304;52.456;13.328;2022-08-21T01:04:38;9.63;;;6.00;;
47575;SDS011;33304;52.456;13.328;2022-08-21T01:07:05;6.37;;;5.77;;
47575;SDS011;33304;52.456;13.328;2022-08-21T01:09:32;7.93;;;6.37;;
47575;SDS011;33304;52.456;13.328;2022-08-21T01:12:00;6.03;;;5.43;;
47575;SDS011;33304;52.456;13.328;2022-08-21T01:14:28;6.87;;;6.17;;
47575;SDS011;33304;52.456;13.328;2022-08-21T01:16:56;7.13;;;6.43;;
47575;SDS011;33304;52.456;13.328;2022-08-21T01:19:27;6.70;;;6.07;;
47575;SDS011;33304;52.456;13.328;2022-08-21T01:21:55;7.53;;;6.17;;
47575;SDS011;33304;52.456;13.328;2022-08-21T01:24:23;6.03;;;5.43;;
47575;SDS011;33304;52.456;13.328;2022-08-21T01:26:50;7.13;;;6.40;;
47575;SDS011;33304;52.456;13.328;2022-08-21T01:29:20;7.10;;;6.20;;
47575;SDS011;33304;52.456;13.328;2022-08-21T01:31:55;6.43;;;5.83;;
47575;SDS011;33304;52.456;13.328;2022-08-21T01:34:23;7.37;;;6.53;;
47575;SDS011;33304;52.456;13.328;2022-08-21T01:36:51;6.83;;;6.13;;
47575;SDS011;33304;52.456;13.328;2022-08-21T01:39:20;7.53;;;6.30;;
47575;SDS011;33304;52.456;13.328;2022-08-21T01:41:47;6.40;;;5.73;;
47575;SDS011;33304;52.456;13.328;2022-08-21T01:44:14;6.27;;;5.67;;
47575;SDS011;33304;52.456;13.328;2022-08-21T01:46:41;6.80;;;5.60;;
47575;SDS011;33304;52.456;13.328;2022-08-21T01:49:08;6.70;;;5.77;;
47575;SDS011;33304;52.456;13.328;2022-08-21T01:51:36;6.50;;;5.80;;
47575;SDS011;33304;52.456;13.328;2022-08-21T01:54:03;7.43;;;5.43;;
47575;SDS011;33304;52.456;13.328;2022-08-21T01:56:36;6.73;;;5.23;;
47575;SDS011;33304;52.456;13.328;2022-08-21T01:59:04;7.00;;;5.10;;
47575;SDS011;33304;52.456;13.328;2022-08-21T02:01:31;5.63;;;4.60;;
47575;SDS011;33304;52.456;13.328;2022-08-21T02:03:58;6.20;;;4.47;;
47575;SDS011;33304;52.456;13.328;2022-08-21T02:06:26;4.73;;;4.00;;
47575;SDS011;33304;52.456;13.328;2022-08-21T02:08:54;7.50;;;4.13;;
47575;SDS011;33304;52.456;13.328;2022-08-21T02:11:21;4.63;;;3.00;;
47575;SDS011;33304;52.456;13.328;2022-08-21T02:13:49;4.73;;;3.30;;
47575;SDS011;33304;52.456;13.328;2022-08-21T02:16:17;6.93;;;3.37;;
47575;SDS011;33304;52.456;13.328;2022-08-21T02:18:44;3.30;;;3.00;;
47575;SDS011;33304;52.456;13.328;2022-08-21T02:21:11;5.87;;;3.37;;
47575;SDS011;33304;52.456;13.328;2022-08-21T02:23:38;5.50;;;3.63;;
47575;SDS011;33304;52.456;13.328;2022-08-21T02:26:06;4.63;;;3.17;;
47575;SDS011;33304;52.456;13.328;2022-08-21T02:28:35;5.20;;;3.57;;
47575;SDS011;33304;52.456;13.328;2022-08-21T02:31:05;3.93;;;2.83;;
47575;SDS011;33304;52.456;13.328;2022-08-21T02:33:32;6.50;;;3.00;;
47575;SDS011;33304;52.456;13.328;2022-08-21T02:36:00;11.80;;;3.20;;
47575;SDS011;33304;52.456;13.328;2022-08-21T02:38:30;4.40;;;3.10;;
47575;SDS011;33304;52.456;13.328;2022-08-21T02:41:00;6.50;;;3.50;;
47575;SDS011;33304;52.456;13.328;2022-08-21T02:43:27;4.87;;;2.80;;
47575;SDS011;33304;52.456;13.328;2022-08-21T02:45:56;3.97;;;3.37;;
47575;SDS011;33304;52.456;13.328;2022-08-21T02:48:27;5.23;;;3.53;;
47575;SDS011;33304;52.456;13.328;2022-08-21T02:50:57;3.57;;;3.20;;
47575;SDS011;33304;52.456;13.328;2022-08-21T02:53:27;3.83;;;3.10;;
47575;SDS011;33304;52.456;13.328;2022-08-21T02:55:56;7.47;;;3.07;;
47575;SDS011;33304;52.456;13.328;2022-08-21T02:58:25;7.27;;;3.33;;
47575;SDS011;33304;52.456;13.328;2022-08-21T03:00:54;6.23;;;3.20;;
47575;SDS011;33304;52.456;13.328;2022-08-21T03:03:21;5.97;;;2.67;;
47575;SDS011;33304;52.456;13.328;2022-08-21T03:05:50;5.27;;;2.80;;
47575;SDS011;33304;52.456;13.328;2022-08-21T03:08:18;5.03;;;2.70;;
47575;SDS011;33304;52.456;13.328;2022-08-21T03:10:46;5.17;;;2.43;;
47575;SDS011;33304;52.456;13.328;2022-08-21T03:13:16;5.47;;;2.30;;
47575;SDS011;33304;52.456;13.328;2022-08-21T03:15:46;6.90;;;2.27;;
47575;SDS011;33304;52.456;13.328;2022-08-21T03:18:14;4.80;;;2.27;;
47575;SDS011;33304;52.456;13.328;2022-08-21T03:20:41;5.20;;;2.13;;
47575;SDS011;33304;52.456;13.328;2022-08-21T03:23:12;3.20;;;2.40;;
47575;SDS011;33304;52.456;13.328;2022-08-21T03:25:39;3.90;;;2.07;;
47575;SDS011;33304;52.456;13.328;2022-08-21T03:28:08;6.03;;;2.63;;
47575;SDS011;33304;52.456;13.328;2022-08-21T03:30:38;5.23;;;2.27;;
47575;SDS011;33304;52.456;13.328;2022-08-21T03:33:05;3.77;;;1.90;;
47575;SDS011;33304;52.456;13.328;2022-08-21T03:35:32;7.10;;;2.40;;
47575;SDS011;33304;52.456;13.328;2022-08-21T03:37:59;2.07;;;1.77;;
47575;SDS011;33304;52.456;13.328;2022-08-21T03:40:28;4.90;;;2.17;;
47575;SDS011;33304;52.456;13.328;2022-08-21T03:42:55;5.07;;;2.23;;
47575;SDS011;33304;52.456;13.328;2022-08-21T03:45:23;3.40;;;2.00;;
47575;SDS011;33304;52.456;13.328;2022-08-21T03:47:50;5.70;;;2.07;;
47575;SDS011;33304;52.456;13.328;2022-08-21T03:50:19;4.20;;;2.17;;
47575;SDS011;33304;52.456;13.328;2022-08-21T03:52:46;3.80;;;2.30;;
47575;SDS011;33304;52.456;13.328;2022-08-21T03:55:13;5.37;;;2.93;;
47575;SDS011;33304;52.456;13.328;2022-08-21T03:57:42;5.60;;;2.63;;
47575;SDS011;33304;52.456;13.328;2022-08-21T04:00:10;3.37;;;2.33;;
47575;SDS011;33304;52.456;13.328;2022-08-21T04:02:38;4.47;;;2.70;;
47575;SDS011;33304;52.456;13.328;2022-08-21T04:05:06;3.60;;;2.73;;
47575;SDS011;33304;52.456;13.328;2022-08-21T04:07:34;3.90;;;2.30;;
47575;SDS011;33304;52.456;13.328;2022-08-21T04:10:02;8.57;;;3.10;;
47575;SDS011;33304;52.456;13.328;2022-08-21T04:12:29;4.10;;;2.53;;
47575;SDS011;33304;52.456;13.328;2022-08-21T04:14:57;4.57;;;2.10;;
47575;SDS011;33304;52.456;13.328;2022-08-21T04:17:27;3.10;;;2.20;;
47575;SDS011;33304;52.456;13.328;2022-08-21T04:19:54;6.23;;;2.53;;
47575;SDS011;33304;52.456;13.328;2022-08-21T04:22:21;4.57;;;2.37;;
47575;SDS011;33304;52.456;13.328;2022-08-21T04:24:49;7.23;;;2.60;;
47575;SDS011;33304;52.456;13.328;2022-08-21T04:27:16;5.93;;;2.70;;
47575;SDS011;33304;52.456;13.328;2022-08-21T04:29:43;5.43;;;2.47;;
47575;SDS011;33304;52.456;13.328;2022-08-21T04:32:12;4.03;;;2.43;;
47575;SDS011;33304;52.456;13.328;2022-08-21T04:34:39;5.20;;;2.20;;
47575;SDS011;33304;52.456;13.328;2022-08-21T04:37:06;6.47;;;2.03;;
47575;SDS011;33304;52.456;13.328;2022-08-21T04:39:33;2.97;;;2.10;;
47575;SDS011;33304;52.456;13.328;2022-08-21T04:42:00;3.33;;;2.10;;
47575;SDS011;33304;52.456;13.328;2022-08-21T04:44:27;6.13;;;2.07;;
47575;SDS011;33304;52.456;13.328;2022-08-21T04:46:54;3.17;;;2.23;;
47575;SDS011;33304;52.456;13.328;2022-08-21T04:49:23;2.90;;;1.80;;
47575;SDS011;33304;52.456;13.328;2022-08-21T04:51:50;3.30;;;2.13;;
47575;SDS011;33304;52.456;13.328;2022-08-21T04:54:19;3.43;;;1.73;;
47575;SDS011;33304;52.456;13.328;2022-08-21T04:56:49;4.23;;;2.00;;
47575;SDS011;33304;52.456;13.328;2022-08-21T04:59:20;4.23;;;1.70;;
47575;SDS011;33304;52.456;13.328;2022-08-21T05:01:50;3.10;;;2.07;;
47575;SDS011;33304;52.456;13.328;2022-08-21T05:04:21;5.37;;;2.03;;
47575;SDS011;33304;52.456;13.328;2022-08-21T05:06:51;3.97;;;1.87;;
47575;SDS011;33304;52.456;13.328;2022-08-21T05:09:21;2.90;;;2.10;;
47575;SDS011;33304;52.456;13.328;2022-08-21T05:11:49;6.13;;;2.17;;
47575;SDS011;33304;52.456;13.328;2022-08-21T05:14:18;5.00;;;2.57;;
47575;SDS011;33304;52.456;13.328;2022-08-21T05:16:46;6.97;;;2.30;;
47575;SDS011;33304;52.456;13.328;2022-08-21T05:19:13;4.00;;;2.33;;
47575;SDS011;33304;52.456;13.328;2022-08-21T05:21:43;3.50;;;2.00;;
47575;SDS011;33304;52.456;13.328;2022-08-21T05:24:13;7.40;;;2.27;;
47575;SDS011;33304;52.456;13.328;2022-08-21T05:26:41;6.27;;;2.37;;
47575;SDS011;33304;52.456;13.328;2022-08-21T05:29:08;6.33;;;2.83;;
47575;SDS011;33304;52.456;13.328;2022-08-21T05:31:36;4.00;;;2.03;;
47575;SDS011;33304;52.456;13.328;2022-08-21T05:34:04;2.60;;;1.57;;
47575;SDS011;33304;52.456;13.328;2022-08-21T05:36:31;3.47;;;2.20;;
47575;SDS011;33304;52.456;13.328;2022-08-21T05:39:00;3.93;;;2.10;;
47575;SDS011;33304;52.456;13.328;2022-08-21T05:41:27;3.53;;;2.47;;
47575;SDS011;33304;52.456;13.328;2022-08-21T05:43:54;3.00;;;2.17;;
47575;SDS011;33304;52.456;13.328;2022-08-21T05:46:21;3.27;;;1.87;;
47575;SDS011;33304;52.456;13.328;2022-08-21T05:48:49;3.70;;;2.07;;
47575;SDS011;33304;52.456;13.328;2022-08-21T05:51:16;2.60;;;1.90;;
47575;SDS011;33304;52.456;13.328;2022-08-21T05:53:43;5.60;;;2.33;;
47575;SDS011;33304;52.456;13.328;2022-08-21T05:56:12;5.00;;;2.17;;
47575;SDS011;33304;52.456;13.328;2022-08-21T05:58:40;5.07;;;2.30;;
47575;SDS011;33304;52.456;13.328;2022-08-21T06:01:08;4.90;;;2.17;;
47575;SDS011;33304;52.456;13.328;2022-08-21T06:03:38;4.80;;;2.30;;
47575;SDS011;33304;52.456;13.328;2022-08-21T06:06:06;4.73;;;2.10;;
47575;SDS011;33304;52.456;13.328;2022-08-21T06:08:33;4.73;;;1.93;;
47575;SDS011;33304;52.456;13.328;2022-08-21T06:11:01;3.77;;;2.00;;
47575;SDS011;33304;52.456;13.328;2022-08-21T06:13:31;5.40;;;2.37;;
47575;SDS011;33304;52.456;13.328;2022-08-21T06:16:06;7.20;;;2.00;;
47575;SDS011;33304;52.456;13.328;2022-08-21T06:18:35;7.30;;;2.17;;
47575;SDS011;33304;52.456;13.328;2022-08-21T06:21:03;4.47;;;1.90;;
47575;SDS011;33304;52.456;13.328;2022-08-21T06:23:31;10.13;;;2.27;;
47575;SDS011;33304;52.456;13.328;2022-08-21T06:25:59;3.77;;;2.13;;
47575;SDS011;33304;52.456;13.328;2022-08-21T06:28:27;2.87;;;1.93;;
47575;SDS011;33304;52.456;13.328;2022-08-21T06:30:55;4.77;;;1.70;;
47575;SDS011;33304;52.456;13.328;2022-08-21T06:33:22;2.63;;;1.80;;
47575;SDS011;33304;52.456;13.328;2022-08-21T06:35:50;11.80;;;2.00;;
47575;SDS011;33304;52.456;13.328;2022-08-21T06:38:17;8.03;;;2.40;;
47575;SDS011;33304;52.456;13.328;2022-08-21T06:40:45;5.53;;;1.80;;
47575;SDS011;33304;52.456;13.328;2022-08-21T06:43:13;7.53;;;1.80;;
47575;SDS011;33304;52.456;13.328;2022-08-21T06:45:42;3.27;;;2.10;;
47575;SDS011;33304;52.456;13.328;2022-08-21T06:48:11;5.00;;;2.00;;
47575;SDS011;33304;52.456;13.328;2022-08-21T06:50:38;2.97;;;1.53;;
47575;SDS011;33304;52.456;13.328;2022-08-21T06:53:06;7.43;;;1.83;;
47575;SDS011;33304;52.456;13.328;2022-08-21T06:55:35;3.73;;;1.90;;
47575;SDS011;33304;52.456;13.328;2022-08-21T06:58:03;4.97;;;1.63;;
47575;SDS011;33304;52.456;13.328;2022-08-21T07:00:31;6.23;;;2.40;;
47575;SDS011;33304;52.456;13.328;2022-08-21T07:02:58;3.27;;;1.20;;
47575;SDS011;33304;52.456;13.328;2022-08-21T07:05:27;6.03;;;2.00;;
47575;SDS011;33304;52.456;13.328;2022-08-21T07:07:56;6.20;;;1.40;;
47575;SDS011;33304;52.456;13.328;2022-08-21T07:10:24;4.43;;;1.40;;
47575;SDS011;33304;52.456;13.328;2022-08-21T07:12:52;3.97;;;1.40;;
47575;SDS011;33304;52.456;13.328;2022-08-21T07:15:20;6.00;;;1.53;;
47575;SDS011;33304;52.456;13.328;2022-08-21T07:17:48;4.00;;;1.47;;
47575;SDS011;33304;52.456;13.328;2022-08-21T07:20:15;3.00;;;1.50;;
47575;SDS011;33304;52.456;13.328;2022-08-21T07:22:44;5.47;;;1.90;;
47575;SDS011;33304;52.456;13.328;2022-08-21T07:25:11;3.77;;;1.27;;
47575;SDS011;33304;52.456;13.328;2022-08-21T07:27:38;7.70;;;1.70;;
47575;SDS011;33304;52.456;13.328;2022-08-21T07:30:06;2.43;;;1.83;;
47575;SDS011;33304;52.456;13.328;2022-08-21T07:32:34;4.63;;;1.90;;
47575;SDS011;33304;52.456;13.328;2022-08-21T07:35:01;4.27;;;1.63;;
47575;SDS011;33304;52.456;13.328;2022-08-21T07:37:30;4.47;;;1.27;;
47575;SDS011;33304;52.456;13.328;2022-08-21T07:39:58;3.80;;;1.50;;
47575;SDS011;33304;52.456;13.328;2022-08-21T07:42:25;1.97;;;1.13;;
47575;SDS011;33304;52.456;13.328;2022-08-21T07:44:54;5.93;;;1.53;;
47575;SDS011;33304;52.456;13.328;2022-08-21T07:47:22;2.90;;;1.20;;
47575;SDS011;33304;52.456;13.328;2022-08-21T07:49:49;3.77;;;1.00;;
47575;SDS011;33304;52.456;13.328;2022-08-21T07:52:16;2.93;;;1.27;;
47575;SDS011;33304;52.456;13.328;2022-08-21T07:54:44;4.07;;;1.30;;
47575;SDS011;33304;52.456;13.328;2022-08-21T07:57:12;5.23;;;1.53;;
47575;SDS011;33304;52.456;13.328;2022-08-21T07:59:39;4.90;;;1.03;;
47575;SDS011;33304;52.456;13.328;2022-08-21T08:02:08;3.77;;;1.37;;
47575;SDS011;33304;52.456;13.328;2022-08-21T08:04:35;5.50;;;1.17;;
47575;SDS011;33304;52.456;13.328;2022-08-21T08:07:02;2.80;;;1.00;;
47575;SDS011;33304;52.456;13.328;2022-08-21T08:09:30;2.97;;;1.20;;
47575;SDS011;33304;52.456;13.328;2022-08-21T08:11:57;2.97;;;1.00;;
47575;SDS011;33304;52.456;13.328;2022-08-21T08:14:25;3.20;;;1.10;;
47575;SDS011;33304;52.456;13.328;2022-08-21T08:16:52;3.53;;;1.20;;
47575;SDS011;33304;52.456;13.328;2022-08-21T08:19:20;4.03;;;1.37;;
47575;SDS011;33304;52.456;13.328;2022-08-21T08:21:47;2.80;;;1.20;;
47575;SDS011;33304;52.456;13.328;2022-08-21T08:24:14;3.60;;;0.97;;
47575;SDS011;33304;52.456;13.328;2022-08-21T08:26:42;5.13;;;1.27;;
47575;SDS011;33304;52.456;13.328;2022-08-21T08:29:09;5.47;;;1.40;;
47575;SDS011;33304;52.456;13.328;2022-08-21T08:31:37;3.43;;;1.30;;
47575;SDS011;33304;52.456;13.328;2022-08-21T08:34:04;4.00;;;1.30;;
47575;SDS011;33304;52.456;13.328;2022-08-21T08:36:32;2.60;;;1.37;;
47575;SDS011;33304;52.456;13.328;2022-08-21T08:39:01;4.27;;;1.40;;
47575;SDS011;33304;52.456;13.328;2022-08-21T08:41:30;2.60;;;1.10;;
47575;SDS011;33304;52.456;13.328;2022-08-21T08:43:59;2.87;;;0.93;;
47575;SDS011;33304;52.456;13.328;2022-08-21T08:46:31;2.37;;;1.20;;
47575;SDS011;33304;52.456;13.328;2022-08-21T08:49:06;4.07;;;1.43;;
47575;SDS011;33304;52.456;13.328;2022-08-21T08:51:39;4.30;;;1.50;;
47575;SDS011;33304;52.456;13.328;2022-08-21T08:54:12;5.63;;;1.40;;
47575;SDS011;33304;52.456;13.328;2022-08-21T08:56:45;6.53;;;1.53;;
47575;SDS011;33304;52.456;13.328;2022-08-21T08:59:14;4.60;;;1.50;;
47575;SDS011;33304;52.456;13.328;2022-08-21T09:01:43;2.60;;;1.23;;
47575;SDS011;33304;52.456;13.328;2022-08-21T09:04:11;4.63;;;1.30;;
47575;SDS011;33304;52.456;13.328;2022-08-21T09:06:43;2.90;;;1.40;;
47575;SDS011;33304;52.456;13.328;2022-08-21T09:09:22;4.70;;;1.50;;
47575;SDS011;33304;52.456;13.328;2022-08-21T09:12:04;4.10;;;1.60;;
47575;SDS011;33304;52.456;13.328;2022-08-21T09:14:40;3.70;;;1.30;;
47575;SDS011;33304;52.456;13.328;2022-08-21T09:17:22;4.00;;;1.40;;
47575;SDS011;33304;52.456;13.328;2022-08-21T09:20:07;2.53;;;1.37;;
47575;SDS011;33304;52.456;13.328;2022-08-21T09:22:44;2.70;;;1.20;;
47575;SDS011;33304;52.456;13.328;2022-08-21T09:25:20;3.00;;;1.40;;
47575;SDS011;33304;52.456;13.328;2022-08-21T09:27:49;4.00;;;1.60;;
47575;SDS011;33304;52.456;13.328;2022-08-21T09:30:17;2.53;;;1.70;;
47575;SDS011;33304;52.456;13.328;2022-08-21T09:32:45;2.83;;;1.37;;
47575;SDS011;33304;52.456;13.328;2022-08-21T09:35:15;2.67;;;1.23;;
47575;SDS011;33304;52.456;13.328;2022-08-21T09:37:46;4.77;;;1.70;;
47575;SDS011;33304;52.456;13.328;2022-08-21T09:40:26;3.20;;;1.47;;
47575;SDS011;33304;52.456;13.328;2022-08-21T09:42:59;4.33;;;1.30;;
47575;SDS011;33304;52.456;13.328;2022-08-21T09:45:28;5.13;;;2.00;;
47575;SDS011;33304;52.456;13.328;2022-08-21T09:47:55;4.95;;;1.58;;
47575;SDS011;33304;52.456;13.328;2022-08-21T09:50:25;3.37;;;1.47;;
47575;SDS011;33304;52.456;13.328;2022-08-21T09:52:54;4.88;;;1.75;;
47575;SDS011;33304;52.456;13.328;2022-08-21T09:55:29;3.55;;;1.38;;
47575;SDS011;33304;52.456;13.328;2022-08-21T09:58:16;2.28;;;1.35;;
47575;SDS011;33304;52.456;13.328;2022-08-21T10:00:45;5.95;;;1.52;;
47575;SDS011;33304;52.456;13.328;2022-08-21T10:03:23;2.55;;;1.50;;
47575;SDS011;33304;52.456;13.328;2022-08-21T10:05:56;4.07;;;1.23;;
47575;SDS011;33304;52.456;13.328;2022-08-21T10:08:26;7.53;;;1.67;;
47575;SDS011;33304;52.456;13.328;2022-08-21T10:10:56;4.28;;;0.98;;
47575;SDS011;33304;52.456;13.328;2022-08-21T10:13:31;3.50;;;1.00;;
47575;SDS011;33304;52.456;13.328;2022-08-21T10:16:11;3.63;;;1.23;;
47575;SDS011;33304;52.456;13.328;2022-08-21T10:18:46;2.45;;;1.15;;
47575;SDS011;33304;52.456;13.328;2022-08-21T10:21:28;3.40;;;1.20;;
47575;SDS011;33304;52.456;13.328;2022-08-21T10:24:03;3.03;;;1.20;;
47575;SDS011;33304;52.456;13.328;2022-08-21T10:26:39;1.85;;;1.25;;
47575;SDS011;33304;52.456;13.328;2022-08-21T10:29:19;2.70;;;0.90;;
47575;SDS011;33304;52.456;13.328;2022-08-21T10:32:05;3.50;;;0.90;;
47575;SDS011;33304;52.456;13.328;2022-08-21T10:34:41;2.08;;;0.82;;
47575;SDS011;33304;52.456;13.328;2022-08-21T10:37:21;3.57;;;1.10;;
47575;SDS011;33304;52.456;13.328;2022-08-21T10:40:00;2.58;;;1.15;;
47575;SDS011;33304;52.456;13.328;2022-08-21T10:42:36;2.20;;;0.95;;
47575;SDS011;33304;52.456;13.328;2022-08-21T10:45:13;2.20;;;0.73;;
47575;SDS011;33304;52.456;13.328;2022-08-21T10:47:47;2.77;;;0.83;;
47575;SDS011;33304;52.456;13.328;2022-08-21T10:50:21;1.65;;;0.90;;
47575;SDS011;33304;52.456;13.328;2022-08-21T10:53:01;0.95;;;0.50;;
47575;SDS011;33304;52.456;13.328;2022-08-21T10:55:39;3.50;;;1.30;;
47575;SDS011;33304;52.456;13.328;2022-08-21T10:58:18;1.23;;;0.70;;
47575;SDS011;33304;52.456;13.328;2022-08-21T11:00:50;1.80;;;0.60;;
47575;SDS011;33304;52.456;13.328;2022-08-21T11:03:24;4.07;;;1.25;;
47575;SDS011;33304;52.456;13.328;2022-08-21T11:05:57;2.40;;;0.95;;
47575;SDS011;33304;52.456;13.328;2022-08-21T11:08:32;3.38;;;1.00;;
47575;SDS011;33304;52.456;13.328;2022-08-21T11:11:05;1.40;;;0.82;;
47575;SDS011;33304;52.456;13.328;2022-08-21T11:13:38;2.35;;;0.70;;
47575;SDS011;33304;52.456;13.328;2022-08-21T11:16:12;3.50;;;1.00;;
47575;SDS011;33304;52.456;13.328;2022-08-21T11:18:46;1.75;;;0.80;;
47575;SDS011;33304;52.456;13.328;2022-08-21T11:21:26;2.38;;;0.93;;
47575;SDS011;33304;52.456;13.328;2022-08-21T11:24:02;2.15;;;0.75;;
47575;SDS011;33304;52.456;13.328;2022-08-21T11:26:41;1.60;;;0.73;;
47575;SDS011;33304;52.456;13.328;2022-08-21T11:29:13;1.55;;;0.68;;
47575;SDS011;33304;52.456;13.328;2022-08-21T11:31:51;1.10;;;0.70;;
47575;SDS011;33304;52.456;13.328;2022-08-21T11:34:30;2.10;;;1.00;;
47575;SDS011;33304;52.456;13.328;2022-08-21T11:37:14;1.67;;;0.80;;
47575;SDS011;33304;52.456;13.328;2022-08-21T11:39:51;0.85;;;0.50;;
47575;SDS011;33304;52.456;13.328;2022-08-21T11:42:27;1.20;;;0.50;;
47575;SDS011;33304;52.456;13.328;2022-08-21T11:45:08;2.35;;;0.90;;
47575;SDS011;33304;52.456;13.328;2022-08-21T11:47:48;1.90;;;1.10;;
47575;SDS011;33304;52.456;13.328;2022-08-21T11:50:23;2.65;;;1.00;;
47575;SDS011;33304;52.456;13.328;2022-08-21T11:52:55;4.55;;;0.90;;
47575;SDS011;33304;52.456;13.328;2022-08-21T11:55:28;1.50;;;0.70;;
47575;SDS011;33304;52.456;13.328;2022-08-21T11:58:00;1.50;;;0.80;;
47575;SDS011;33304;52.456;13.328;2022-08-21T12:00:32;1.98;;;1.10;;
47575;SDS011;33304;52.456;13.328;2022-08-21T12:03:06;2.15;;;1.23;;
47575;SDS011;33304;52.456;13.328;2022-08-21T12:05:38;2.35;;;1.25;;
47575;SDS011;33304;52.456;13.328;2022-08-21T12:08:11;0.73;;;0.70;;
47575;SDS011;33304;52.456;13.328;2022-08-21T12:10:42;4.32;;;1.13;;
47575;SDS011;33304;52.456;13.328;2022-08-21T12:13:22;3.92;;;1.73;;
47575;SDS011;33304;52.456;13.328;2022-08-21T12:15:52;1.80;;;1.00;;
47575;SDS011;33304;52.456;13.328;2022-08-21T12:18:31;2.00;;;0.88;;
47575;SDS011;33304;52.456;13.328;2022-08-21T12:21:03;2.72;;;0.95;;
47575;SDS011;33304;52.456;13.328;2022-08-21T12:23:32;1.55;;;0.60;;
47575;SDS011;33304;52.456;13.328;2022-08-21T12:26:13;2.03;;;0.88;;
47575;SDS011;33304;52.456;13.328;2022-08-21T12:28:48;1.20;;;0.52;;
47575;SDS011;33304;52.456;13.328;2022-08-21T12:31:17;2.22;;;0.70;;
47575;SDS011;33304;52.456;13.328;2022-08-21T12:33:49;1.08;;;0.60;;
47575;SDS011;33304;52.456;13.328;2022-08-21T12:36:21;0.93;;;0.43;;
47575;SDS011;33304;52.456;13.328;2022-08-21T12:38:52;0.68;;;0.40;;
47575;SDS011;33304;52.456;13.328;2022-08-21T12:41:26;1.10;;;0.63;;
47575;SDS011;33304;52.456;13.328;2022-08-21T12:43:57;2.78;;;0.80;;
47575;SDS011;33304;52.456;13.328;2022-08-21T12:46:29;1.20;;;0.70;;
47575;SDS011;33304;52.456;13.328;2022-08-21T12:49:07;1.58;;;0.90;;
47575;SDS011;33304;52.456;13.328;2022-08-21T12:51:45;1.45;;;0.88;;
47575;SDS011;33304;52.456;13.328;2022-08-21T12:54:25;1.33;;;0.63;;
47575;SDS011;33304;52.456;13.328;2022-08-21T12:56:59;1.05;;;0.93;;
47575;SDS011;33304;52.456;13.328;2022-08-21T12:59:27;2.17;;;0.90;;
47575;SDS011;33304;52.456;13.328;2022-08-21T13:01:56;1.30;;;0.90;;
47575;SDS011;33304;52.456;13.328;2022-08-21T13:04:27;1.58;;;0.65;;
47575;SDS011;33304;52.456;13.328;2022-08-21T13:07:05;2.15;;;1.00;;
47575;SDS011;33304;52.456;13.328;2022-08-21T13:09:36;1.35;;;1.00;;
47575;SDS011;33304;52.456;13.328;2022-08-21T13:12:11;2.05;;;0.90;;
47575;SDS011;33304;52.456;13.328;2022-08-21T13:14:41;1.48;;;0.95;;
47575;SDS011;33304;52.456;13.328;2022-08-21T13:17:12;2.35;;;1.00;;
47575;SDS011;33304;52.456;13.328;2022-08-21T13:19:41;3.05;;;1.08;;
47575;SDS011;33304;52.456;13.328;2022-08-21T13:22:12;2.67;;;1.02;;
47575;SDS011;33304;52.456;13.328;2022-08-21T13:24:40;2.70;;;1.23;;
47575;SDS011;33304;52.456;13.328;2022-08-21T13:30:06;2.17;;;0.80;;
47575;SDS011;33304;52.456;13.328;2022-08-21T13:32:37;4.38;;;1.13;;
47575;SDS011;33304;52.456;13.328;2022-08-21T13:35:09;2.67;;;1.02;;
47575;SDS011;33304;52.456;13.328;2022-08-21T13:37:39;1.75;;;0.90;;
47575;SDS011;33304;52.456;13.328;2022-08-21T13:40:09;4.78;;;1.55;;
47575;SDS011;33304;52.456;13.328;2022-08-21T13:42:41;5.30;;;1.08;;
47575;SDS011;33304;52.456;13.328;2022-08-21T13:45:14;3.63;;;1.15;;
47575;SDS011;33304;52.456;13.328;2022-08-21T13:47:44;2.13;;;0.85;;
47575;SDS011;33304;52.456;13.328;2022-08-21T13:50:13;3.33;;;1.05;;
47575;SDS011;33304;52.456;13.328;2022-08-21T13:52:47;3.20;;;1.20;;
47575;SDS011;33304;52.456;13.328;2022-08-21T13:55:20;2.47;;;1.30;;
47575;SDS011;33304;52.456;13.328;2022-08-21T13:57:51;2.53;;;0.70;;
47575;SDS011;33304;52.456;13.328;2022-08-21T14:00:27;2.60;;;0.95;;
47575;SDS011;33304;52.456;13.328;2022-08-21T14:02:59;3.47;;;1.05;;
47575;SDS011;33304;52.456;13.328;2022-08-21T14:05:31;2.45;;;1.13;;
47575;SDS011;33304;52.456;13.328;2022-08-21T14:08:02;2.30;;;1.30;;
47575;SDS011;33304;52.456;13.328;2022-08-21T14:10:35;3.00;;;1.02;;
47575;SDS011;33304;52.456;13.328;2022-08-21T14:13:26;2.65;;;1.02;;
47575;SDS011;33304;52.456;13.328;2022-08-21T14:15:58;3.50;;;1.20;;
47575;SDS011;33304;52.456;13.328;2022-08-21T14:18:26;4.68;;;1.55;;
47575;SDS011;33304;52.456;13.328;2022-08-21T14:21:03;4.35;;;1.10;;
47575;SDS011;33304;52.456;13.328;2022-08-21T14:23:31;2.75;;;1.08;;
47575;SDS011;33304;52.456;13.328;2022-08-21T14:25:58;2.05;;;0.93;;
47575;SDS011;33304;52.456;13.328;2022-08-21T14:28:29;1.70;;;1.02;;
47575;SDS011;33304;52.456;13.328;2022-08-21T14:30:59;3.38;;;1.20;;
47575;SDS011;33304;52.456;13.328;2022-08-21T14:33:39;2.33;;;1.20;;
47575;SDS011;33304;52.456;13.328;2022-08-21T14:36:06;1.10;;;0.90;;
47575;SDS011;33304;52.456;13.328;2022-08-21T14:38:35;2.60;;;1.10;;
47575;SDS011;33304;52.456;13.328;2022-08-21T14:41:04;1.80;;;0.98;;
47575;SDS011;33304;52.456;13.328;2022-08-21T14:43:39;2.92;;;1.25;;
47575;SDS011;33304;52.456;13.328;2022-08-21T14:46:06;6.55;;;1.13;;
47575;SDS011;33304;52.456;13.328;2022-08-21T14:48:34;2.17;;;1.33;;
47575;SDS011;33304;52.456;13.328;2022-08-21T14:51:01;5.05;;;1.45;;
47575;SDS011;33304;52.456;13.328;2022-08-21T14:53:29;3.92;;;1.38;;